罗盘
风向 的 风向 230° Teuge International Airport 8/26
风: 3 kt, 1 beaufort

2 kt

2 kt
改变
0 1.000 2.000 3.000 4.000 5.000
没有观察到明显的云
METAR EHLE 042355Z AUTO 23003KT 9999 NSC 11/10 Q1021

METAR Teuge International Airport

Teuge International Airport是Deventer,荷兰中的中型机场。 该机场有一条跑道: 8/26.

这份报告是针对2022年7月5日 1:55 上午, 当地时间在Lelystad Airport进行的。

机场观察

风向为230°,速度为3 kt。

可见度为6¼ mi 或者更多。

有没有观察到明显的云。 没有观察到天花板。

温度和风寒是52 °F。 露点为50 °F,相对湿度为94%。 海平面上的气压为30,15 inHg (QNH)。

白天

今天,太阳从5:22 上午升起,在9:58 下午降落。 这适用于Teuge International Airport,世界夏令时可能有所不同。 当地时间与世界标准时间之间的时差为+2 小时。 夏令时目前正在进行中。

公司介绍

在这个机场,你可以找到飞行学校。 本场上唯一已知的公司是Vliegles.nl。

体会

在这个机场有飞行课程。 你可以在没有任何经验的情况下预订飞行课程。 在Teuge International Airport预订最多的飞行课程类型是Cessna flying lesson。 这些课程的价格从€ 149开始。 在这里阅读更多关于Cessna flying lesson的信息。你也可以在这个网站上进行预订。

您会帮助我们保持Metar-Taf.com正常运行吗?
您的贡献有助于网站的进一步开发并支付费用。

没有更多广告

您是捐款5美元还是更多?然后,我们将永远不会再向您展示广告,这是我们永恒的感谢!
捐赠前先登录

跑道

Id 标题 侧风 逆风 侧风 %
8/26 084°-264° 2 kt 2 kt 56 %

逆风成分最大的方向会被突出显示,并用于横风计算。 这并不一定意味着这个方向在使用。

乌云

- NSC 没有观察到明显的云

温度 & 天气

温度 52 °F
露点 50 °F
相对湿度 94%
Kp-index 0  

公司介绍

新增公司

下载我们的应用程序

在您的手机和平板电脑上轻松访问所有航空天气。
有许多网站上没有的功能,如离线支持和个人机场列表。

Studio Eveline

Benalmádena
España

我们和第三方通过cookies跟踪您在我们网站上的上网行为。如果您继续,我们认为您同意我们的cookie政策。 了解更多